createdAt,value
2018-07-24T00:00:40.987Z,18.63
2018-07-24T00:03:09.411Z,17.37
2018-07-24T00:05:36.931Z,15.70
2018-07-24T00:08:04.799Z,14.00
2018-07-24T00:10:32.414Z,15.20
2018-07-24T00:12:59.934Z,19.30
2018-07-24T00:15:27.495Z,13.70
2018-07-24T00:17:55.619Z,13.50
2018-07-24T00:20:24.262Z,12.07
2018-07-24T00:22:52.235Z,12.13
2018-07-24T00:25:19.759Z,18.10
2018-07-24T00:27:47.814Z,12.07
2018-07-24T00:30:15.265Z,13.83
2018-07-24T00:32:42.751Z,13.13
2018-07-24T00:35:10.368Z,14.57
2018-07-24T00:37:38.166Z,14.60
2018-07-24T00:40:05.782Z,11.17
2018-07-24T00:42:33.358Z,15.00
2018-07-24T00:45:01.276Z,16.27
2018-07-24T00:47:29.357Z,22.50
2018-07-24T00:49:57.609Z,17.10
2018-07-24T00:52:26.019Z,15.00
2018-07-24T00:54:53.502Z,13.23
2018-07-24T00:57:20.998Z,17.90
2018-07-24T00:59:49.038Z,13.67
2018-07-24T01:02:16.558Z,15.80
2018-07-24T01:04:44.055Z,12.50
2018-07-24T01:07:11.603Z,17.47
2018-07-24T01:09:39.134Z,16.90
2018-07-24T01:12:06.830Z,12.23
2018-07-24T01:14:34.375Z,10.90
2018-07-24T01:17:02.294Z,12.47
2018-07-24T01:19:30.976Z,12.10
2018-07-24T01:21:58.500Z,15.30
2018-07-24T01:24:26.720Z,14.10
2018-07-24T01:26:55.611Z,14.43
2018-07-24T01:29:23.059Z,14.90
2018-07-24T01:31:50.575Z,16.30
2018-07-24T01:34:18.088Z,14.20
2018-07-24T01:36:45.608Z,14.67
2018-07-24T01:39:13.203Z,14.43
2018-07-24T01:41:40.721Z,14.43
2018-07-24T01:44:08.589Z,15.30
2018-07-24T01:46:36.838Z,16.90
2018-07-24T01:49:04.383Z,18.90
2018-07-24T01:51:32.376Z,21.77
2018-07-24T01:54:00.467Z,18.10
2018-07-24T01:56:28.414Z,14.53
2018-07-24T01:58:56.073Z,13.07
2018-07-24T02:01:23.582Z,17.20
2018-07-24T02:03:51.094Z,19.20
2018-07-24T02:06:18.590Z,16.70
2018-07-24T02:08:46.167Z,14.20
2018-07-24T02:11:13.679Z,13.20
2018-07-24T02:13:41.695Z,13.07
2018-07-24T02:16:09.244Z,12.10
2018-07-24T02:18:37.081Z,9.90
2018-07-24T02:21:05.020Z,14.37
2018-07-24T02:23:32.581Z,12.10
2018-07-24T02:26:00.084Z,15.87
2018-07-24T02:28:28.421Z,13.80
2018-07-24T02:30:55.924Z,15.30
2018-07-24T02:33:23.418Z,14.20
2018-07-24T02:35:50.964Z,11.73
2018-07-24T02:38:19.324Z,12.87
2018-07-24T02:40:46.819Z,12.10
2018-07-24T02:43:14.787Z,10.87
2018-07-24T02:45:42.686Z,12.63
2018-07-24T02:48:10.234Z,11.93
2018-07-24T02:50:38.536Z,15.10
2018-07-24T02:53:06.351Z,12.73
2018-07-24T02:55:34.331Z,12.97
2018-07-24T02:58:01.843Z,12.00
2018-07-24T03:00:29.364Z,10.60
2018-07-24T03:02:56.908Z,10.60
2018-07-24T03:05:24.426Z,10.87
2018-07-24T03:07:52.007Z,10.53
2018-07-24T03:10:20.119Z,11.80
2018-07-24T03:12:47.613Z,10.00
2018-07-24T03:15:15.717Z,10.20
2018-07-24T03:17:43.220Z,9.90
2018-07-24T03:20:11.275Z,10.70
2018-07-24T03:22:38.783Z,10.40
2018-07-24T03:25:06.284Z,8.63
2018-07-24T03:27:34.187Z,10.77
2018-07-24T03:30:01.737Z,17.07
2018-07-24T03:32:30.195Z,13.80
2018-07-24T03:34:57.678Z,12.30
2018-07-24T03:37:25.174Z,11.40
2018-07-24T03:39:52.711Z,13.20
2018-07-24T03:42:20.878Z,14.53
2018-07-24T03:44:48.670Z,12.60
2018-07-24T03:47:16.174Z,11.70
2018-07-24T03:49:43.687Z,15.30
2018-07-24T03:52:11.787Z,12.03
2018-07-24T03:54:39.291Z,11.70
2018-07-24T03:57:06.815Z,11.47
2018-07-24T03:59:34.343Z,13.10
2018-07-24T04:02:01.852Z,15.93
2018-07-24T04:04:29.593Z,13.57
2018-07-24T04:06:57.127Z,13.00
2018-07-24T04:09:25.407Z,12.50
2018-07-24T04:11:52.845Z,11.73
2018-07-24T04:14:20.655Z,14.40
2018-07-24T04:16:48.526Z,10.47
2018-07-24T04:19:16.894Z,12.70
2018-07-24T04:21:45.071Z,13.80
2018-07-24T04:24:12.583Z,10.00
2018-07-24T04:26:40.502Z,16.03
2018-07-24T04:29:08.004Z,12.27
2018-07-24T04:31:35.519Z,11.70
2018-07-24T04:34:03.047Z,9.80
2018-07-24T04:36:30.597Z,11.67
2018-07-24T04:38:58.203Z,13.00
2018-07-24T04:41:26.203Z,12.50
2018-07-24T04:43:54.183Z,13.63
2018-07-24T04:46:21.609Z,12.37
2018-07-24T04:48:49.102Z,12.07
2018-07-24T04:51:17.167Z,10.90
2018-07-24T04:53:44.662Z,13.83
2018-07-24T04:56:12.151Z,10.37
2018-07-24T04:58:39.659Z,10.57
2018-07-24T05:01:07.187Z,14.30
2018-07-24T05:03:34.780Z,15.30
2018-07-24T05:06:03.383Z,17.90
2018-07-24T05:08:30.875Z,17.57
2018-07-24T05:10:59.023Z,18.20
2018-07-24T05:13:27.012Z,18.07
2018-07-24T05:15:54.975Z,17.60
2018-07-24T05:18:22.515Z,17.70
2018-07-24T05:20:50.707Z,16.33
2018-07-24T05:23:18.236Z,16.57
2018-07-24T05:25:45.813Z,18.13
2018-07-24T05:28:13.850Z,18.40
2018-07-24T05:30:41.351Z,18.60
2018-07-24T05:33:08.914Z,16.63
2018-07-24T05:35:36.428Z,14.90
2018-07-24T05:38:04.823Z,17.50
2018-07-24T05:40:32.343Z,17.63
2018-07-24T05:42:59.883Z,16.27
2018-07-24T05:45:27.899Z,17.03
2018-07-24T05:47:56.183Z,17.63
2018-07-24T05:50:23.789Z,15.80
2018-07-24T05:52:51.823Z,15.70
2018-07-24T05:55:19.692Z,15.60
2018-07-24T05:57:47.247Z,17.80
2018-07-24T06:00:14.794Z,16.00
2018-07-24T06:02:42.332Z,17.73
2018-07-24T06:05:10.200Z,16.23
2018-07-24T06:07:38.270Z,17.00
2018-07-24T06:10:05.851Z,16.80
2018-07-24T06:12:33.784Z,15.67
2018-07-24T06:15:01.288Z,17.13
2018-07-24T06:17:29.184Z,15.37
2018-07-24T06:19:57.143Z,15.07
2018-07-24T06:22:24.676Z,17.10
2018-07-24T06:24:52.215Z,14.80
2018-07-24T06:27:20.074Z,16.37
2018-07-24T06:29:47.668Z,15.40
2018-07-24T06:32:15.198Z,16.43
2018-07-24T06:34:43.483Z,15.53
2018-07-24T06:37:11.047Z,14.80
2018-07-24T06:39:38.607Z,15.23
2018-07-24T06:42:06.134Z,14.63
2018-07-24T06:44:34.170Z,16.50
2018-07-24T06:47:01.695Z,15.03
2018-07-24T06:49:29.214Z,14.20
2018-07-24T06:51:57.135Z,15.10
2018-07-24T06:54:24.598Z,14.67
2018-07-24T06:56:52.053Z,14.30
2018-07-24T06:59:19.865Z,15.23
2018-07-24T07:01:47.946Z,14.80
2018-07-24T07:04:15.837Z,15.57
2018-07-24T07:06:43.670Z,14.87
2018-07-24T07:09:11.574Z,14.37
2018-07-24T07:11:39.062Z,12.63
2018-07-24T07:14:06.806Z,12.30
2018-07-24T07:16:34.702Z,16.10
2018-07-24T07:19:03.422Z,14.77
2018-07-24T07:21:31.550Z,13.90
2018-07-24T07:23:59.208Z,15.53
2018-07-24T07:26:27.092Z,14.93
2018-07-24T07:28:54.652Z,13.63
2018-07-24T07:31:22.167Z,13.80
2018-07-24T07:33:50.155Z,13.13
2018-07-24T07:36:17.601Z,13.40
2018-07-24T07:38:45.781Z,11.70
2018-07-24T07:41:13.444Z,13.80
2018-07-24T07:43:41.707Z,12.33
2018-07-24T07:46:09.657Z,12.40
2018-07-24T07:48:37.197Z,11.80
2018-07-24T07:51:05.051Z,12.60
2018-07-24T07:53:33.098Z,12.47
2018-07-24T07:56:00.611Z,13.63
2018-07-24T07:58:29.270Z,14.00
2018-07-24T08:00:57.230Z,14.03
2018-07-24T08:03:25.299Z,13.77
2018-07-24T08:05:52.843Z,12.50
2018-07-24T08:08:20.682Z,12.80
2018-07-24T08:10:48.174Z,12.50
2018-07-24T08:13:15.667Z,11.70
2018-07-24T08:15:43.230Z,12.60
2018-07-24T08:18:11.276Z,12.60
2018-07-24T08:20:39.310Z,12.90
2018-07-24T08:23:06.758Z,11.80
2018-07-24T08:25:34.263Z,10.73
2018-07-24T08:28:02.167Z,10.60
2018-07-24T08:30:30.166Z,10.73
2018-07-24T08:32:57.708Z,10.00
2018-07-24T08:35:25.211Z,11.00
2018-07-24T08:37:53.430Z,11.80
2018-07-24T08:40:21.395Z,9.30
2018-07-24T08:42:48.926Z,10.30
2018-07-24T08:45:16.940Z,9.37
2018-07-24T08:47:45.015Z,11.37
2018-07-24T08:50:12.601Z,12.40
2018-07-24T08:52:40.561Z,11.60
2018-07-24T08:55:08.244Z,10.83
2018-07-24T08:57:36.086Z,10.20
2018-07-24T09:00:04.054Z,11.10
2018-07-24T09:02:32.183Z,10.17
2018-07-24T09:05:00.581Z,10.23
2018-07-24T09:07:28.092Z,9.63
2018-07-24T09:09:55.603Z,11.33
2018-07-24T09:12:23.155Z,10.20
2018-07-24T09:14:50.668Z,10.70
2018-07-24T09:17:18.254Z,10.63
2018-07-24T09:19:46.503Z,9.63
2018-07-24T09:22:14.627Z,11.50
2018-07-24T09:24:43.395Z,9.77
2018-07-24T09:27:11.423Z,9.27
2018-07-24T09:29:39.277Z,8.87
2018-07-24T09:32:06.877Z,10.83
2018-07-24T09:34:34.346Z,11.17
2018-07-24T09:37:01.931Z,9.60
2018-07-24T09:39:29.763Z,7.20
2018-07-24T09:41:57.198Z,9.43
2018-07-24T09:44:25.504Z,9.17
2018-07-24T09:46:54.313Z,11.70
2018-07-24T09:49:21.852Z,8.40
2018-07-24T09:51:49.964Z,8.23
2018-07-24T09:54:17.859Z,8.50
2018-07-24T09:56:45.423Z,11.37
2018-07-24T09:59:13.403Z,8.93
2018-07-24T10:01:40.914Z,11.10
2018-07-24T10:04:08.827Z,9.83
2018-07-24T10:06:36.381Z,9.53
2018-07-24T10:09:08.008Z,9.97
2018-07-24T10:11:35.510Z,11.30
2018-07-24T10:14:03.367Z,9.90
2018-07-24T10:16:30.948Z,8.53
2018-07-24T10:18:58.469Z,9.47
2018-07-24T10:21:26.635Z,8.90
2018-07-24T10:23:54.260Z,9.10
2018-07-24T10:26:22.174Z,9.20
2018-07-24T10:28:49.734Z,9.53
2018-07-24T10:31:17.323Z,10.00
2018-07-24T10:33:45.049Z,9.17
2018-07-24T10:36:13.170Z,11.33
2018-07-24T10:38:41.950Z,8.50
2018-07-24T10:41:09.526Z,9.83
2018-07-24T10:43:37.449Z,8.00
2018-07-24T10:46:05.161Z,8.97
2018-07-24T10:48:32.679Z,9.57
2018-07-24T10:51:01.037Z,9.00
2018-07-24T10:53:28.631Z,9.20
2018-07-24T10:55:56.991Z,8.50
2018-07-24T10:58:24.577Z,8.53
2018-07-24T11:00:52.150Z,8.37
2018-07-24T11:03:19.718Z,7.87
2018-07-24T11:05:47.247Z,8.77
2018-07-24T11:08:15.582Z,9.07
2018-07-24T11:10:43.116Z,7.87
2018-07-24T11:13:10.606Z,8.90
2018-07-24T11:15:38.126Z,8.53
2018-07-24T11:18:05.709Z,8.23
2018-07-24T11:20:33.768Z,8.30
2018-07-24T11:23:02.173Z,7.80
2018-07-24T11:25:29.698Z,7.73
2018-07-24T11:27:57.542Z,8.13
2018-07-24T11:30:25.155Z,7.60
2018-07-24T11:32:53.022Z,7.83
2018-07-24T11:35:20.983Z,8.77
2018-07-24T11:37:48.522Z,7.90
2018-07-24T11:40:16.405Z,8.33
2018-07-24T11:42:45.148Z,8.60
2018-07-24T11:45:13.744Z,9.13
2018-07-24T11:47:41.264Z,7.90
2018-07-24T11:50:09.260Z,8.37
2018-07-24T11:52:36.810Z,8.40
2018-07-24T11:55:04.950Z,7.73
2018-07-24T11:57:32.550Z,8.07
2018-07-24T12:00:00.730Z,9.27
2018-07-24T12:02:28.286Z,8.77
2018-07-24T12:04:55.804Z,8.10
2018-07-24T12:07:23.314Z,9.20
2018-07-24T12:09:50.847Z,8.83
2018-07-24T12:12:19.212Z,8.37
2018-07-24T12:14:46.705Z,8.70
2018-07-24T12:17:14.196Z,8.70
2018-07-24T12:19:42.364Z,8.20
2018-07-24T12:22:10.216Z,8.37
2018-07-24T12:24:37.723Z,8.33
2018-07-24T12:27:06.109Z,7.20
2018-07-24T12:29:34.131Z,7.47
2018-07-24T12:32:02.103Z,7.70
2018-07-24T12:34:29.609Z,7.90
2018-07-24T12:36:57.179Z,6.80
2018-07-24T12:39:25.923Z,7.17
2018-07-24T12:41:53.819Z,6.97
2018-07-24T12:44:21.645Z,7.40
2018-07-24T12:46:49.518Z,8.23
2018-07-24T12:49:16.982Z,7.73
2018-07-24T12:51:45.718Z,7.20
2018-07-24T12:54:13.270Z,7.93
2018-07-24T12:56:40.766Z,8.10
2018-07-24T12:59:08.314Z,7.70
2018-07-24T13:01:35.828Z,8.00
2018-07-24T13:04:04.145Z,7.33
2018-07-24T13:06:31.637Z,8.13
2018-07-24T13:08:59.163Z,7.40
2018-07-24T13:11:27.302Z,7.60
2018-07-24T13:13:55.388Z,8.37
2018-07-24T13:16:22.822Z,7.90
2018-07-24T13:18:51.419Z,7.67
2018-07-24T13:21:19.411Z,7.80
2018-07-24T13:23:47.542Z,8.07
2018-07-24T13:26:15.368Z,7.00
2018-07-24T13:28:43.269Z,7.20
2018-07-24T13:31:10.772Z,7.60
2018-07-24T13:33:38.419Z,7.50
2018-07-24T13:36:07.351Z,7.90
2018-07-24T13:38:35.326Z,6.43
2018-07-24T13:41:02.821Z,7.10
2018-07-24T13:43:31.112Z,6.70
2018-07-24T13:45:59.352Z,6.90
2018-07-24T13:48:27.531Z,7.00
2018-07-24T13:50:54.982Z,6.87
2018-07-24T13:53:22.491Z,6.80
2018-07-24T13:55:50.543Z,7.50
2018-07-24T13:58:18.076Z,7.17
2018-07-24T14:00:45.637Z,6.50
2018-07-24T14:03:13.171Z,5.50
2018-07-24T14:05:41.332Z,6.63
2018-07-24T14:08:08.822Z,7.40
2018-07-24T14:10:36.342Z,7.07
2018-07-24T14:13:04.039Z,6.93
2018-07-24T14:15:31.870Z,6.53
2018-07-24T14:17:59.366Z,6.03
2018-07-24T14:20:27.502Z,5.73
2018-07-24T14:22:55.019Z,6.20
2018-07-24T14:25:23.238Z,6.80
2018-07-24T14:27:51.155Z,6.60
2018-07-24T14:30:18.703Z,6.90
2018-07-24T14:32:46.862Z,5.87
2018-07-24T14:35:14.947Z,5.57
2018-07-24T14:37:42.691Z,6.23
2018-07-24T14:40:10.209Z,5.80
2018-07-24T14:42:38.138Z,5.43
2018-07-24T14:45:06.071Z,5.53
2018-07-24T14:47:34.031Z,5.73
2018-07-24T14:50:01.540Z,5.53
2018-07-24T14:52:29.035Z,5.30
2018-07-24T14:54:56.574Z,5.40
2018-07-24T14:57:24.078Z,5.37
2018-07-24T14:59:52.163Z,4.70
2018-07-24T15:02:19.679Z,5.90
2018-07-24T15:04:47.496Z,5.00
2018-07-24T15:07:15.050Z,5.27
2018-07-24T15:09:42.563Z,5.10
2018-07-24T15:12:10.191Z,5.20
2018-07-24T15:14:38.427Z,4.90
2018-07-24T15:17:05.979Z,4.60
2018-07-24T15:19:34.635Z,5.00
2018-07-24T15:22:02.127Z,4.90
2018-07-24T15:24:30.141Z,5.10
2018-07-24T15:26:58.036Z,5.33
2018-07-24T15:29:25.569Z,4.63
2018-07-24T15:31:53.420Z,5.00
2018-07-24T15:34:21.440Z,4.20
2018-07-24T15:36:48.860Z,5.00
2018-07-24T15:39:16.757Z,4.17
2018-07-24T15:41:44.659Z,4.90
2018-07-24T15:44:12.699Z,4.43
2018-07-24T15:46:40.772Z,4.10
2018-07-24T15:49:08.300Z,4.00
2018-07-24T15:51:35.803Z,4.97
2018-07-24T15:54:03.839Z,4.27
2018-07-24T15:56:31.359Z,4.20
2018-07-24T15:58:58.931Z,4.47
2018-07-24T16:01:26.455Z,4.00
2018-07-24T16:03:53.973Z,3.77
2018-07-24T16:06:21.831Z,3.77
2018-07-24T16:08:49.684Z,3.97
2018-07-24T16:11:17.592Z,3.60
2018-07-24T16:13:45.407Z,4.00
2018-07-24T16:16:13.783Z,3.27
2018-07-24T16:18:41.276Z,3.87
2018-07-24T16:21:09.173Z,3.30
2018-07-24T16:23:37.396Z,3.87
2018-07-24T16:26:05.570Z,3.70
2018-07-24T16:28:33.003Z,3.70
2018-07-24T16:31:01.387Z,3.37
2018-07-24T16:33:29.286Z,3.80
2018-07-24T16:35:57.363Z,3.57
2018-07-24T16:38:26.047Z,3.67
2018-07-24T16:40:53.924Z,4.07
2018-07-24T16:43:21.910Z,4.00
2018-07-24T16:45:49.582Z,3.90
2018-07-24T16:48:17.095Z,3.50
2018-07-24T16:50:44.645Z,4.00
2018-07-24T16:53:12.183Z,4.10
2018-07-24T16:55:39.861Z,3.97
2018-07-24T16:58:07.419Z,4.13
2018-07-24T17:00:34.933Z,3.90
2018-07-24T17:03:02.444Z,4.33
2018-07-24T17:05:29.967Z,5.00
2018-07-24T17:07:57.590Z,4.67
2018-07-24T17:10:25.885Z,4.30
2018-07-24T17:12:53.800Z,5.10
2018-07-24T17:15:22.011Z,4.10
2018-07-24T17:17:49.534Z,4.80
2018-07-24T17:20:17.814Z,4.83
2018-07-24T17:22:45.895Z,5.03
2018-07-24T17:25:13.886Z,5.03
2018-07-24T17:27:41.781Z,4.10
2018-07-24T17:30:09.323Z,4.00
2018-07-24T17:32:37.387Z,4.37
2018-07-24T17:35:05.563Z,4.80
2018-07-24T17:37:33.634Z,4.20
2018-07-24T17:40:01.765Z,4.70
2018-07-24T17:42:29.827Z,5.10
2018-07-24T17:44:57.670Z,4.20
2018-07-24T17:47:25.201Z,4.93
2018-07-24T17:49:52.696Z,3.90
2018-07-24T17:52:20.231Z,4.40
2018-07-24T17:54:47.742Z,5.23
2018-07-24T17:57:15.334Z,5.07
2018-07-24T17:59:44.434Z,4.23
2018-07-24T18:02:11.931Z,4.70
2018-07-24T18:04:39.435Z,5.33
2018-07-24T18:07:07.390Z,5.70
2018-07-24T18:09:35.218Z,6.70
2018-07-24T18:12:02.734Z,4.90
2018-07-24T18:14:30.679Z,5.00
2018-07-24T18:16:58.654Z,4.63
2018-07-24T18:19:26.626Z,6.70
2018-07-24T18:21:54.507Z,7.07
2018-07-24T18:24:22.030Z,5.37
2018-07-24T18:26:49.870Z,5.20
2018-07-24T18:29:17.411Z,5.67
2018-07-24T18:31:45.022Z,5.57
2018-07-24T18:34:12.988Z,5.77
2018-07-24T18:36:40.883Z,6.77
2018-07-24T18:39:09.177Z,5.90
2018-07-24T18:41:37.415Z,6.60
2018-07-24T18:44:05.972Z,5.90
2018-07-24T18:46:33.935Z,5.70
2018-07-24T18:49:01.535Z,5.10
2018-07-24T18:51:29.118Z,5.87
2018-07-24T18:53:57.244Z,6.17
2018-07-24T18:56:25.254Z,4.90
2018-07-24T18:58:52.801Z,5.60
2018-07-24T19:01:20.797Z,5.73
2018-07-24T19:03:48.774Z,5.70
2018-07-24T19:06:16.799Z,5.10
2018-07-24T19:08:44.331Z,5.10
2018-07-24T19:11:11.903Z,6.57
2018-07-24T19:13:40.551Z,6.90
2018-07-24T19:16:08.065Z,6.73
2018-07-24T19:18:35.990Z,5.50
2018-07-24T19:21:04.611Z,6.30
2018-07-24T19:23:33.171Z,6.00
2018-07-24T19:26:01.264Z,5.00
2018-07-24T19:28:28.783Z,5.10
2018-07-24T19:30:57.120Z,5.10
2018-07-24T19:33:24.718Z,7.43
2018-07-24T19:35:52.628Z,6.30
2018-07-24T19:38:20.141Z,6.67
2018-07-24T19:40:48.295Z,6.40
2018-07-24T19:43:16.155Z,8.60
2018-07-24T19:45:44.083Z,8.80
2018-07-24T19:48:12.495Z,9.00
2018-07-24T19:50:40.438Z,6.00
2018-07-24T19:53:08.830Z,6.40
2018-07-24T19:55:36.902Z,5.90
2018-07-24T19:58:05.105Z,5.90
2018-07-24T20:00:33.874Z,6.43
2018-07-24T20:03:02.568Z,8.40
2018-07-24T20:05:31.678Z,8.80
2018-07-24T20:08:00.122Z,8.40
2018-07-24T20:10:28.953Z,6.00
2018-07-24T20:12:57.675Z,5.20
2018-07-24T20:15:25.547Z,5.17
2018-07-24T20:17:54.130Z,6.50
2018-07-24T20:20:22.393Z,5.40
2018-07-24T20:22:51.104Z,5.67
2018-07-24T20:25:19.305Z,10.30
2018-07-24T20:27:47.923Z,6.90
2018-07-24T20:30:15.670Z,7.20
2018-07-24T20:32:44.141Z,6.00
2018-07-24T20:35:13.853Z,6.60
2018-07-24T20:37:42.476Z,6.40
2018-07-24T20:40:10.486Z,5.73
2018-07-24T20:42:38.758Z,7.20
2018-07-24T20:45:07.001Z,7.10
2018-07-24T20:47:35.310Z,6.40
2018-07-24T20:50:03.811Z,6.00
2018-07-24T20:52:31.543Z,6.20
2018-07-24T20:55:00.124Z,7.47
2018-07-24T20:57:27.830Z,6.87
2018-07-24T20:59:56.096Z,6.50
2018-07-24T21:02:24.322Z,7.27
2018-07-24T21:04:52.919Z,8.83
2018-07-24T21:07:20.894Z,8.40
2018-07-24T21:09:49.018Z,7.80
2018-07-24T21:12:16.922Z,7.83
2018-07-24T21:14:45.307Z,8.00
2018-07-24T21:17:13.487Z,6.47
2018-07-24T21:19:42.052Z,8.07
2018-07-24T21:22:10.556Z,7.87
2018-07-24T21:24:39.734Z,8.87
2018-07-24T21:27:08.119Z,7.53
2018-07-24T21:29:36.753Z,7.93
2018-07-24T21:32:04.605Z,8.43
2018-07-24T21:34:33.287Z,9.90
2018-07-24T21:37:00.766Z,8.20
2018-07-24T21:39:28.270Z,9.07
2018-07-24T21:41:55.827Z,10.00
2018-07-24T21:44:24.129Z,9.40
2018-07-24T21:46:51.667Z,9.37
2018-07-24T21:49:19.984Z,7.93
2018-07-24T21:51:47.424Z,6.70
2018-07-24T21:54:15.486Z,6.33
2018-07-24T21:56:43.667Z,6.73
2018-07-24T21:59:11.124Z,7.30
2018-07-24T22:01:39.211Z,7.73
2018-07-24T22:04:06.984Z,7.90
2018-07-24T22:06:34.945Z,7.60
2018-07-24T22:09:02.781Z,7.53
2018-07-24T22:11:30.830Z,7.00
2018-07-24T22:13:59.030Z,7.30
2018-07-24T22:16:26.590Z,9.40
2018-07-24T22:18:54.129Z,7.17
2018-07-24T22:21:22.753Z,6.80
2018-07-24T22:23:50.902Z,6.70
2018-07-24T22:26:19.771Z,9.43
2018-07-24T22:28:47.675Z,10.03
2018-07-24T22:31:15.915Z,9.70
2018-07-24T22:33:43.629Z,8.80
2018-07-24T22:36:11.491Z,7.20
2018-07-24T22:38:39.633Z,8.00
2018-07-24T22:41:07.084Z,9.50
2018-07-24T22:43:35.091Z,10.23
2018-07-24T22:46:03.177Z,10.00
2018-07-24T22:48:30.695Z,7.67
2018-07-24T22:50:58.526Z,8.10
2018-07-24T22:53:26.046Z,7.77
2018-07-24T22:55:54.015Z,7.30
2018-07-24T22:58:21.542Z,7.93
2018-07-24T23:00:49.082Z,8.20
2018-07-24T23:03:16.602Z,6.83
2018-07-24T23:05:44.593Z,6.23
2018-07-24T23:08:12.774Z,9.07
2018-07-24T23:10:40.566Z,7.70
2018-07-24T23:13:08.639Z,7.77
2018-07-24T23:15:36.205Z,7.73
2018-07-24T23:18:03.819Z,10.77
2018-07-24T23:20:31.851Z,10.33
2018-07-24T23:22:59.726Z,10.27
2018-07-24T23:25:27.614Z,10.37
2018-07-24T23:27:55.639Z,10.90
2018-07-24T23:30:23.710Z,9.10
2018-07-24T23:32:51.894Z,11.40
2018-07-24T23:35:19.394Z,7.77
2018-07-24T23:37:46.891Z,9.10
2018-07-24T23:40:14.427Z,9.97
2018-07-24T23:42:42.282Z,9.80
2018-07-24T23:45:10.163Z,9.97
2018-07-24T23:47:37.670Z,8.80
2018-07-24T23:50:05.918Z,9.30
2018-07-24T23:52:34.755Z,11.27
2018-07-24T23:55:02.264Z,11.87
2018-07-24T23:57:29.758Z,10.97
2018-07-24T23:59:57.286Z,9.80
